sensor_id;sensor_type;location;lat;lon;timestamp;P1;durP1;ratioP1;P2;durP2;ratioP2
49193;SDS011;35029;50.804;12.866;2022-09-24T00:00:56;5.78;;;4.85;;
49193;SDS011;35029;50.804;12.866;2022-09-24T00:03:22;7.20;;;5.13;;
49193;SDS011;35029;50.804;12.866;2022-09-24T00:05:49;6.55;;;4.68;;
49193;SDS011;35029;50.804;12.866;2022-09-24T00:08:17;6.00;;;5.03;;
49193;SDS011;35029;50.804;12.866;2022-09-24T00:10:44;5.85;;;5.18;;
49193;SDS011;35029;50.804;12.866;2022-09-24T00:13:14;14.40;;;4.78;;
49193;SDS011;35029;50.804;12.866;2022-09-24T00:15:43;6.47;;;4.55;;
49193;SDS011;35029;50.804;12.866;2022-09-24T00:18:11;11.00;;;4.80;;
49193;SDS011;35029;50.804;12.866;2022-09-24T00:20:38;6.72;;;4.22;;
49193;SDS011;35029;50.804;12.866;2022-09-24T00:23:05;6.20;;;4.35;;
49193;SDS011;35029;50.804;12.866;2022-09-24T00:25:32;4.80;;;4.30;;
49193;SDS011;35029;50.804;12.866;2022-09-24T00:28:16;4.70;;;4.20;;
49193;SDS011;35029;50.804;12.866;2022-09-24T00:30:42;9.93;;;4.20;;
49193;SDS011;35029;50.804;12.866;2022-09-24T00:33:08;5.82;;;4.60;;
49193;SDS011;35029;50.804;12.866;2022-09-24T00:35:35;4.47;;;3.70;;
49193;SDS011;35029;50.804;12.866;2022-09-24T00:38:01;5.00;;;4.30;;
49193;SDS011;35029;50.804;12.866;2022-09-24T00:40:28;6.78;;;4.20;;
49193;SDS011;35029;50.804;12.866;2022-09-24T00:42:54;8.85;;;4.03;;
49193;SDS011;35029;50.804;12.866;2022-09-24T00:45:20;4.70;;;4.30;;
49193;SDS011;35029;50.804;12.866;2022-09-24T00:47:46;4.80;;;4.13;;
49193;SDS011;35029;50.804;12.866;2022-09-24T00:50:15;4.38;;;3.72;;
49193;SDS011;35029;50.804;12.866;2022-09-24T00:52:46;4.57;;;4.18;;
49193;SDS011;35029;50.804;12.866;2022-09-24T00:55:15;5.30;;;4.57;;
49193;SDS011;35029;50.804;12.866;2022-09-24T00:57:44;6.65;;;4.50;;
49193;SDS011;35029;50.804;12.866;2022-09-24T01:00:11;5.38;;;4.80;;
49193;SDS011;35029;50.804;12.866;2022-09-24T01:02:38;7.75;;;4.38;;
49193;SDS011;35029;50.804;12.866;2022-09-24T01:05:08;5.73;;;4.40;;
49193;SDS011;35029;50.804;12.866;2022-09-24T01:07:34;6.30;;;4.43;;
49193;SDS011;35029;50.804;12.866;2022-09-24T01:10:00;5.32;;;4.28;;
49193;SDS011;35029;50.804;12.866;2022-09-24T01:12:30;4.82;;;4.10;;
49193;SDS011;35029;50.804;12.866;2022-09-24T01:15:23;4.90;;;4.38;;
49193;SDS011;35029;50.804;12.866;2022-09-24T01:18:08;7.97;;;4.82;;
49193;SDS011;35029;50.804;12.866;2022-09-24T01:23:42;4.55;;;4.15;;
49193;SDS011;35029;50.804;12.866;2022-09-24T01:32:20;4.90;;;3.80;;
49193;SDS011;35029;50.804;12.866;2022-09-24T01:35:07;3.80;;;3.40;;
49193;SDS011;35029;50.804;12.866;2022-09-24T01:37:40;5.05;;;4.03;;
49193;SDS011;35029;50.804;12.866;2022-09-24T01:40:12;5.00;;;4.50;;
49193;SDS011;35029;50.804;12.866;2022-09-24T01:42:39;4.30;;;3.90;;
49193;SDS011;35029;50.804;12.866;2022-09-24T01:45:08;5.32;;;4.07;;
49193;SDS011;35029;50.804;12.866;2022-09-24T01:47:36;4.43;;;3.70;;
49193;SDS011;35029;50.804;12.866;2022-09-24T01:50:07;10.85;;;4.18;;
49193;SDS011;35029;50.804;12.866;2022-09-24T01:55:12;4.50;;;4.00;;
49193;SDS011;35029;50.804;12.866;2022-09-24T01:57:42;8.75;;;4.47;;
49193;SDS011;35029;50.804;12.866;2022-09-24T02:00:13;6.45;;;3.75;;
49193;SDS011;35029;50.804;12.866;2022-09-24T02:05:29;4.75;;;4.20;;
49193;SDS011;35029;50.804;12.866;2022-09-24T02:08:05;4.57;;;3.67;;
49193;SDS011;35029;50.804;12.866;2022-09-24T02:10:48;12.70;;;4.45;;
49193;SDS011;35029;50.804;12.866;2022-09-24T02:13:19;6.60;;;3.80;;
49193;SDS011;35029;50.804;12.866;2022-09-24T02:15:49;4.25;;;3.85;;
49193;SDS011;35029;50.804;12.866;2022-09-24T02:18:20;3.92;;;3.45;;
49193;SDS011;35029;50.804;12.866;2022-09-24T02:20:50;4.13;;;3.72;;
49193;SDS011;35029;50.804;12.866;2022-09-24T02:23:17;4.47;;;3.80;;
49193;SDS011;35029;50.804;12.866;2022-09-24T02:25:48;11.95;;;3.78;;
49193;SDS011;35029;50.804;12.866;2022-09-24T02:28:24;7.68;;;4.15;;
49193;SDS011;35029;50.804;12.866;2022-09-24T02:30:52;4.00;;;3.60;;
49193;SDS011;35029;50.804;12.866;2022-09-24T02:33:21;4.20;;;3.72;;
49193;SDS011;35029;50.804;12.866;2022-09-24T02:36:07;3.90;;;3.45;;
49193;SDS011;35029;50.804;12.866;2022-09-24T02:38:33;4.00;;;3.70;;
49193;SDS011;35029;50.804;12.866;2022-09-24T02:40:58;4.00;;;3.55;;
49193;SDS011;35029;50.804;12.866;2022-09-24T02:43:24;4.07;;;3.67;;
49193;SDS011;35029;50.804;12.866;2022-09-24T02:45:50;3.72;;;3.40;;
49193;SDS011;35029;50.804;12.866;2022-09-24T02:48:15;4.43;;;3.75;;
49193;SDS011;35029;50.804;12.866;2022-09-24T02:50:41;4.50;;;3.95;;
49193;SDS011;35029;50.804;12.866;2022-09-24T02:53:06;5.60;;;4.03;;
49193;SDS011;35029;50.804;12.866;2022-09-24T02:55:32;4.68;;;3.30;;
49193;SDS011;35029;50.804;12.866;2022-09-24T02:57:57;4.57;;;4.18;;
49193;SDS011;35029;50.804;12.866;2022-09-24T03:00:23;3.97;;;3.67;;
49193;SDS011;35029;50.804;12.866;2022-09-24T03:02:48;5.57;;;3.97;;
49193;SDS011;35029;50.804;12.866;2022-09-24T03:05:14;3.42;;;3.13;;
49193;SDS011;35029;50.804;12.866;2022-09-24T03:07:43;3.97;;;3.58;;
49193;SDS011;35029;50.804;12.866;2022-09-24T03:10:09;4.20;;;3.80;;
49193;SDS011;35029;50.804;12.866;2022-09-24T03:12:35;4.45;;;3.80;;
49193;SDS011;35029;50.804;12.866;2022-09-24T03:15:01;6.32;;;3.92;;
49193;SDS011;35029;50.804;12.866;2022-09-24T03:17:27;4.30;;;3.90;;
49193;SDS011;35029;50.804;12.866;2022-09-24T03:19:53;4.82;;;4.43;;
49193;SDS011;35029;50.804;12.866;2022-09-24T03:22:18;4.97;;;4.43;;
49193;SDS011;35029;50.804;12.866;2022-09-24T03:24:44;10.13;;;4.40;;
49193;SDS011;35029;50.804;12.866;2022-09-24T03:27:10;4.40;;;4.00;;
49193;SDS011;35029;50.804;12.866;2022-09-24T03:29:35;5.85;;;4.50;;
49193;SDS011;35029;50.804;12.866;2022-09-24T03:32:19;4.60;;;4.20;;
49193;SDS011;35029;50.804;12.866;2022-09-24T03:34:45;4.47;;;4.05;;
49193;SDS011;35029;50.804;12.866;2022-09-24T03:37:11;5.28;;;4.30;;
49193;SDS011;35029;50.804;12.866;2022-09-24T03:39:36;5.72;;;4.45;;
49193;SDS011;35029;50.804;12.866;2022-09-24T03:42:02;6.55;;;4.25;;
49193;SDS011;35029;50.804;12.866;2022-09-24T03:44:28;4.32;;;3.90;;
49193;SDS011;35029;50.804;12.866;2022-09-24T03:46:53;5.18;;;4.18;;
49193;SDS011;35029;50.804;12.866;2022-09-24T03:49:19;4.60;;;4.13;;
49193;SDS011;35029;50.804;12.866;2022-09-24T03:51:45;5.95;;;4.00;;
49193;SDS011;35029;50.804;12.866;2022-09-24T03:54:10;5.40;;;4.88;;
49193;SDS011;35029;50.804;12.866;2022-09-24T03:56:36;5.82;;;4.90;;
49193;SDS011;35029;50.804;12.866;2022-09-24T03:59:02;5.90;;;5.30;;
49193;SDS011;35029;50.804;12.866;2022-09-24T04:01:27;5.32;;;4.82;;
49193;SDS011;35029;50.804;12.866;2022-09-24T04:03:55;5.70;;;5.10;;
49193;SDS011;35029;50.804;12.866;2022-09-24T04:06:20;5.18;;;4.68;;
49193;SDS011;35029;50.804;12.866;2022-09-24T04:08:46;6.47;;;5.20;;
49193;SDS011;35029;50.804;12.866;2022-09-24T04:11:11;6.18;;;5.57;;
49193;SDS011;35029;50.804;12.866;2022-09-24T04:13:37;7.25;;;4.70;;
49193;SDS011;35029;50.804;12.866;2022-09-24T04:16:02;5.22;;;4.72;;
49193;SDS011;35029;50.804;12.866;2022-09-24T04:18:28;4.78;;;4.25;;
49193;SDS011;35029;50.804;12.866;2022-09-24T04:20:58;4.40;;;4.00;;
49193;SDS011;35029;50.804;12.866;2022-09-24T04:23:24;5.85;;;4.45;;
49193;SDS011;35029;50.804;12.866;2022-09-24T04:25:49;5.32;;;4.82;;
49193;SDS011;35029;50.804;12.866;2022-09-24T04:28:15;10.45;;;5.50;;
49193;SDS011;35029;50.804;12.866;2022-09-24T04:30:40;6.07;;;5.47;;
49193;SDS011;35029;50.804;12.866;2022-09-24T04:33:07;5.85;;;5.25;;
49193;SDS011;35029;50.804;12.866;2022-09-24T04:35:35;5.90;;;5.32;;
49193;SDS011;35029;50.804;12.866;2022-09-24T04:38:07;5.22;;;4.72;;
49193;SDS011;35029;50.804;12.866;2022-09-24T04:42:59;5.47;;;4.97;;
49193;SDS011;35029;50.804;12.866;2022-09-24T04:45:25;5.93;;;5.03;;
49193;SDS011;35029;50.804;12.866;2022-09-24T04:47:51;9.38;;;4.68;;
49193;SDS011;35029;50.804;12.866;2022-09-24T04:50:20;6.55;;;4.15;;
49193;SDS011;35029;50.804;12.866;2022-09-24T04:52:51;5.43;;;4.93;;
49193;SDS011;35029;50.804;12.866;2022-09-24T04:55:17;5.72;;;5.15;;
49193;SDS011;35029;50.804;12.866;2022-09-24T04:57:45;5.80;;;5.28;;
49193;SDS011;35029;50.804;12.866;2022-09-24T05:00:11;10.15;;;5.85;;
49193;SDS011;35029;50.804;12.866;2022-09-24T05:02:39;6.45;;;5.05;;
49193;SDS011;35029;50.804;12.866;2022-09-24T05:05:06;6.32;;;5.47;;
49193;SDS011;35029;50.804;12.866;2022-09-24T05:07:32;6.15;;;5.55;;
49193;SDS011;35029;50.804;12.866;2022-09-24T05:09:58;7.28;;;5.50;;
49193;SDS011;35029;50.804;12.866;2022-09-24T05:12:23;6.40;;;5.45;;
49193;SDS011;35029;50.804;12.866;2022-09-24T05:14:49;7.15;;;5.55;;
49193;SDS011;35029;50.804;12.866;2022-09-24T05:17:15;8.30;;;5.03;;
49193;SDS011;35029;50.804;12.866;2022-09-24T05:19:40;8.57;;;5.20;;
49193;SDS011;35029;50.804;12.866;2022-09-24T05:22:06;5.63;;;4.80;;
49193;SDS011;35029;50.804;12.866;2022-09-24T05:24:32;6.47;;;4.75;;
49193;SDS011;35029;50.804;12.866;2022-09-24T05:26:58;6.32;;;4.28;;
49193;SDS011;35029;50.804;12.866;2022-09-24T05:29:39;4.30;;;4.00;;
49193;SDS011;35029;50.804;12.866;2022-09-24T05:32:14;5.25;;;4.40;;
49193;SDS011;35029;50.804;12.866;2022-09-24T05:34:42;4.50;;;4.10;;
49193;SDS011;35029;50.804;12.866;2022-09-24T05:37:09;5.70;;;4.70;;
49193;SDS011;35029;50.804;12.866;2022-09-24T05:39:35;6.95;;;4.22;;
49193;SDS011;35029;50.804;12.866;2022-09-24T05:42:01;6.57;;;5.00;;
49193;SDS011;35029;50.804;12.866;2022-09-24T05:44:29;6.53;;;5.93;;
49193;SDS011;35029;50.804;12.866;2022-09-24T05:46:56;10.93;;;7.40;;
49193;SDS011;35029;50.804;12.866;2022-09-24T05:49:22;5.07;;;4.40;;
49193;SDS011;35029;50.804;12.866;2022-09-24T05:51:48;6.68;;;5.20;;
49193;SDS011;35029;50.804;12.866;2022-09-24T05:54:15;6.05;;;5.45;;
49193;SDS011;35029;50.804;12.866;2022-09-24T05:56:41;7.13;;;6.43;;
49193;SDS011;35029;50.804;12.866;2022-09-24T05:59:07;15.50;;;11.10;;
49193;SDS011;35029;50.804;12.866;2022-09-24T06:01:33;13.35;;;7.00;;
49193;SDS011;35029;50.804;12.866;2022-09-24T06:03:59;15.23;;;11.13;;
49193;SDS011;35029;50.804;12.866;2022-09-24T06:06:25;11.30;;;7.82;;
49193;SDS011;35029;50.804;12.866;2022-09-24T06:08:54;11.13;;;7.50;;
49193;SDS011;35029;50.804;12.866;2022-09-24T06:11:20;8.80;;;6.35;;
49193;SDS011;35029;50.804;12.866;2022-09-24T06:13:47;6.95;;;5.63;;
49193;SDS011;35029;50.804;12.866;2022-09-24T06:16:12;5.35;;;4.85;;
49193;SDS011;35029;50.804;12.866;2022-09-24T06:18:39;5.60;;;5.10;;
49193;SDS011;35029;50.804;12.866;2022-09-24T06:21:10;8.07;;;4.47;;
49193;SDS011;35029;50.804;12.866;2022-09-24T06:23:37;5.82;;;4.47;;
49193;SDS011;35029;50.804;12.866;2022-09-24T06:26:04;7.03;;;4.78;;
49193;SDS011;35029;50.804;12.866;2022-09-24T06:28:32;5.35;;;4.85;;
49193;SDS011;35029;50.804;12.866;2022-09-24T06:31:00;4.93;;;4.40;;
49193;SDS011;35029;50.804;12.866;2022-09-24T06:33:25;5.20;;;4.70;;
49193;SDS011;35029;50.804;12.866;2022-09-24T06:35:51;5.35;;;4.85;;
49193;SDS011;35029;50.804;12.866;2022-09-24T06:38:17;4.70;;;4.30;;
49193;SDS011;35029;50.804;12.866;2022-09-24T06:40:44;5.05;;;4.00;;
49193;SDS011;35029;50.804;12.866;2022-09-24T06:43:12;6.13;;;4.32;;
49193;SDS011;35029;50.804;12.866;2022-09-24T06:45:39;4.97;;;4.35;;
49193;SDS011;35029;50.804;12.866;2022-09-24T06:48:07;4.75;;;4.20;;
49193;SDS011;35029;50.804;12.866;2022-09-24T06:50:34;4.30;;;3.90;;
49193;SDS011;35029;50.804;12.866;2022-09-24T06:53:04;5.40;;;4.32;;
49193;SDS011;35029;50.804;12.866;2022-09-24T06:55:30;5.28;;;4.75;;
49193;SDS011;35029;50.804;12.866;2022-09-24T06:58:04;4.10;;;3.70;;
49193;SDS011;35029;50.804;12.866;2022-09-24T07:00:31;5.05;;;4.63;;
49193;SDS011;35029;50.804;12.866;2022-09-24T07:02:57;4.63;;;4.22;;
49193;SDS011;35029;50.804;12.866;2022-09-24T07:05:23;4.55;;;4.15;;
49193;SDS011;35029;50.804;12.866;2022-09-24T07:07:48;3.92;;;3.63;;
49193;SDS011;35029;50.804;12.866;2022-09-24T07:10:14;4.35;;;3.95;;
49193;SDS011;35029;50.804;12.866;2022-09-24T07:12:41;7.10;;;3.55;;
49193;SDS011;35029;50.804;12.866;2022-09-24T07:15:07;4.72;;;4.25;;
49193;SDS011;35029;50.804;12.866;2022-09-24T07:17:34;4.28;;;3.88;;
49193;SDS011;35029;50.804;12.866;2022-09-24T07:20:00;6.38;;;3.92;;
49193;SDS011;35029;50.804;12.866;2022-09-24T07:22:26;5.18;;;4.68;;
49193;SDS011;35029;50.804;12.866;2022-09-24T07:24:52;5.82;;;4.50;;
49193;SDS011;35029;50.804;12.866;2022-09-24T07:27:17;4.63;;;4.22;;
49193;SDS011;35029;50.804;12.866;2022-09-24T07:29:45;8.43;;;4.97;;
49193;SDS011;35029;50.804;12.866;2022-09-24T07:32:14;7.30;;;5.30;;
49193;SDS011;35029;50.804;12.866;2022-09-24T07:34:44;5.05;;;4.55;;
49193;SDS011;35029;50.804;12.866;2022-09-24T07:37:10;4.65;;;4.25;;
49193;SDS011;35029;50.804;12.866;2022-09-24T07:39:35;4.53;;;3.95;;
49193;SDS011;35029;50.804;12.866;2022-09-24T07:42:01;4.32;;;3.92;;
49193;SDS011;35029;50.804;12.866;2022-09-24T07:44:27;4.10;;;3.72;;
49193;SDS011;35029;50.804;12.866;2022-09-24T07:46:54;4.57;;;4.15;;
49193;SDS011;35029;50.804;12.866;2022-09-24T07:49:20;4.90;;;4.50;;
49193;SDS011;35029;50.804;12.866;2022-09-24T07:51:47;5.85;;;5.25;;
49193;SDS011;35029;50.804;12.866;2022-09-24T07:54:13;4.40;;;4.00;;
49193;SDS011;35029;50.804;12.866;2022-09-24T07:56:39;9.27;;;4.63;;
49193;SDS011;35029;50.804;12.866;2022-09-24T07:59:05;4.85;;;4.43;;
49193;SDS011;35029;50.804;12.866;2022-09-24T08:01:31;4.97;;;4.50;;
49193;SDS011;35029;50.804;12.866;2022-09-24T08:03:57;6.40;;;5.07;;
49193;SDS011;35029;50.804;12.866;2022-09-24T08:06:23;4.47;;;4.03;;
49193;SDS011;35029;50.804;12.866;2022-09-24T08:08:49;5.05;;;3.80;;
49193;SDS011;35029;50.804;12.866;2022-09-24T08:11:17;6.18;;;4.93;;
49193;SDS011;35029;50.804;12.866;2022-09-24T08:13:44;7.68;;;4.93;;
49193;SDS011;35029;50.804;12.866;2022-09-24T08:16:10;7.28;;;4.18;;
49193;SDS011;35029;50.804;12.866;2022-09-24T08:18:37;7.18;;;4.40;;
49193;SDS011;35029;50.804;12.866;2022-09-24T08:21:04;5.43;;;4.90;;
49193;SDS011;35029;50.804;12.866;2022-09-24T08:23:31;8.13;;;4.68;;
49193;SDS011;35029;50.804;12.866;2022-09-24T08:25:58;6.30;;;4.40;;
49193;SDS011;35029;50.804;12.866;2022-09-24T08:28:24;7.50;;;4.20;;
49193;SDS011;35029;50.804;12.866;2022-09-24T08:30:50;6.22;;;4.57;;
49193;SDS011;35029;50.804;12.866;2022-09-24T08:33:15;7.18;;;4.40;;
49193;SDS011;35029;50.804;12.866;2022-09-24T08:35:41;5.80;;;4.43;;
49193;SDS011;35029;50.804;12.866;2022-09-24T08:38:06;9.18;;;4.40;;
49193;SDS011;35029;50.804;12.866;2022-09-24T08:40:43;6.03;;;5.28;;
49193;SDS011;35029;50.804;12.866;2022-09-24T08:43:18;4.70;;;4.28;;
49193;SDS011;35029;50.804;12.866;2022-09-24T08:46:49;5.63;;;4.22;;
49193;SDS011;35029;50.804;12.866;2022-09-24T08:49:29;9.30;;;4.30;;
49193;SDS011;35029;50.804;12.866;2022-09-24T08:52:35;5.78;;;4.63;;
49193;SDS011;35029;50.804;12.866;2022-09-24T08:54:53;5.80;;;5.00;;
49193;SDS011;35029;50.804;12.866;2022-09-24T08:57:22;5.10;;;4.25;;
49193;SDS011;35029;50.804;12.866;2022-09-24T08:59:49;5.35;;;4.38;;
49193;SDS011;35029;50.804;12.866;2022-09-24T09:02:25;6.72;;;3.90;;
49193;SDS011;35029;50.804;12.866;2022-09-24T09:05:08;5.57;;;3.45;;
49193;SDS011;35029;50.804;12.866;2022-09-24T09:08:01;5.72;;;3.80;;
49193;SDS011;35029;50.804;12.866;2022-09-24T09:10:43;5.65;;;4.18;;
49193;SDS011;35029;50.804;12.866;2022-09-24T09:13:14;5.97;;;3.10;;
49193;SDS011;35029;50.804;12.866;2022-09-24T09:15:47;4.25;;;3.85;;
49193;SDS011;35029;50.804;12.866;2022-09-24T09:18:17;5.10;;;4.13;;
49193;SDS011;35029;50.804;12.866;2022-09-24T09:20:50;5.40;;;3.55;;
49193;SDS011;35029;50.804;12.866;2022-09-24T09:23:38;7.35;;;4.00;;
49193;SDS011;35029;50.804;12.866;2022-09-24T09:26:11;4.03;;;3.50;;
49193;SDS011;35029;50.804;12.866;2022-09-24T09:28:36;3.95;;;3.58;;
49193;SDS011;35029;50.804;12.866;2022-09-24T09:42:34;3.63;;;3.30;;
49193;SDS011;35029;50.804;12.866;2022-09-24T09:48:07;3.05;;;2.70;;
49193;SDS011;35029;50.804;12.866;2022-09-24T09:50:43;4.05;;;3.00;;
49193;SDS011;35029;50.804;12.866;2022-09-24T09:53:20;5.53;;;3.05;;
49193;SDS011;35029;50.804;12.866;2022-09-24T09:56:00;3.55;;;3.00;;
49193;SDS011;35029;50.804;12.866;2022-09-24T09:58:29;3.55;;;3.17;;
49193;SDS011;35029;50.804;12.866;2022-09-24T10:01:07;2.85;;;2.60;;
49193;SDS011;35029;50.804;12.866;2022-09-24T10:08:51;3.10;;;2.80;;
49193;SDS011;35029;50.804;12.866;2022-09-24T10:11:17;4.00;;;2.90;;
49193;SDS011;35029;50.804;12.866;2022-09-24T10:13:44;4.35;;;3.22;;
49193;SDS011;35029;50.804;12.866;2022-09-24T10:16:10;10.48;;;3.20;;
49193;SDS011;35029;50.804;12.866;2022-09-24T10:18:44;3.95;;;3.30;;
49193;SDS011;35029;50.804;12.866;2022-09-24T10:21:30;3.53;;;3.22;;
49193;SDS011;35029;50.804;12.866;2022-09-24T10:23:59;4.22;;;3.65;;
49193;SDS011;35029;50.804;12.866;2022-09-24T10:26:39;4.50;;;3.33;;
49193;SDS011;35029;50.804;12.866;2022-09-24T10:29:12;3.60;;;2.60;;
49193;SDS011;35029;50.804;12.866;2022-09-24T10:32:00;5.65;;;3.58;;
49193;SDS011;35029;50.804;12.866;2022-09-24T10:34:27;3.17;;;2.88;;
49193;SDS011;35029;50.804;12.866;2022-09-24T10:37:00;3.22;;;2.92;;
49193;SDS011;35029;50.804;12.866;2022-09-24T10:39:28;5.13;;;3.63;;
49193;SDS011;35029;50.804;12.866;2022-09-24T10:41:55;4.75;;;3.00;;
49193;SDS011;35029;50.804;12.866;2022-09-24T10:44:22;4.32;;;3.55;;
49193;SDS011;35029;50.804;12.866;2022-09-24T10:46:57;4.25;;;3.38;;
49193;SDS011;35029;50.804;12.866;2022-09-24T10:50:00;4.13;;;3.47;;
49193;SDS011;35029;50.804;12.866;2022-09-24T10:58:03;9.70;;;3.47;;
49193;SDS011;35029;50.804;12.866;2022-09-24T11:11:46;6.35;;;3.70;;
49193;SDS011;35029;50.804;12.866;2022-09-24T11:17:37;5.60;;;3.28;;
49193;SDS011;35029;50.804;12.866;2022-09-24T11:20:13;3.97;;;3.58;;
49193;SDS011;35029;50.804;12.866;2022-09-24T11:25:42;8.70;;;4.10;;
49193;SDS011;35029;50.804;12.866;2022-09-24T11:40:22;5.43;;;3.30;;
49193;SDS011;35029;50.804;12.866;2022-09-24T11:43:27;4.50;;;4.10;;
49193;SDS011;35029;50.804;12.866;2022-09-24T11:49:55;5.43;;;3.28;;
49193;SDS011;35029;50.804;12.866;2022-09-24T11:52:35;5.43;;;3.47;;
49193;SDS011;35029;50.804;12.866;2022-09-24T11:57:39;5.88;;;3.97;;
49193;SDS011;35029;50.804;12.866;2022-09-24T12:00:12;3.50;;;3.20;;
49193;SDS011;35029;50.804;12.866;2022-09-24T12:05:24;3.83;;;3.53;;
49193;SDS011;35029;50.804;12.866;2022-09-24T12:07:56;7.18;;;4.00;;
49193;SDS011;35029;50.804;12.866;2022-09-24T12:10:30;5.97;;;3.60;;
49193;SDS011;35029;50.804;12.866;2022-09-24T12:13:01;4.85;;;3.45;;
49193;SDS011;35029;50.804;12.866;2022-09-24T12:15:44;6.15;;;3.53;;
49193;SDS011;35029;50.804;12.866;2022-09-24T12:18:15;5.38;;;4.50;;
49193;SDS011;35029;50.804;12.866;2022-09-24T12:21:07;5.03;;;4.05;;
49193;SDS011;35029;50.804;12.866;2022-09-24T12:23:37;5.72;;;3.03;;
49193;SDS011;35029;50.804;12.866;2022-09-24T12:26:06;5.30;;;4.47;;
49193;SDS011;35029;50.804;12.866;2022-09-24T12:28:36;6.50;;;4.25;;
49193;SDS011;35029;50.804;12.866;2022-09-24T12:31:31;4.60;;;4.00;;
49193;SDS011;35029;50.804;12.866;2022-09-24T12:34:30;6.28;;;4.15;;
49193;SDS011;35029;50.804;12.866;2022-09-24T12:37:08;5.22;;;4.28;;
49193;SDS011;35029;50.804;12.866;2022-09-24T12:39:48;3.53;;;3.22;;
49193;SDS011;35029;50.804;12.866;2022-09-24T12:42:27;5.03;;;3.90;;
49193;SDS011;35029;50.804;12.866;2022-09-24T12:44:58;4.03;;;3.50;;
49193;SDS011;35029;50.804;12.866;2022-09-24T12:47:26;5.35;;;3.95;;
49193;SDS011;35029;50.804;12.866;2022-09-24T12:50:04;4.50;;;3.30;;
49193;SDS011;35029;50.804;12.866;2022-09-24T12:52:40;5.72;;;3.97;;
49193;SDS011;35029;50.804;12.866;2022-09-24T12:57:59;4.47;;;3.78;;
49193;SDS011;35029;50.804;12.866;2022-09-24T13:03:29;4.13;;;3.72;;
49193;SDS011;35029;50.804;12.866;2022-09-24T13:06:03;5.00;;;3.90;;
49193;SDS011;35029;50.804;12.866;2022-09-24T13:08:44;3.38;;;3.00;;
49193;SDS011;35029;50.804;12.866;2022-09-24T13:11:24;6.63;;;3.83;;
49193;SDS011;35029;50.804;12.866;2022-09-24T13:13:59;6.18;;;3.42;;
49193;SDS011;35029;50.804;12.866;2022-09-24T13:16:49;4.07;;;3.67;;
49193;SDS011;35029;50.804;12.866;2022-09-24T13:24:53;5.03;;;3.80;;
49193;SDS011;35029;50.804;12.866;2022-09-24T13:27:57;4.45;;;4.05;;
49193;SDS011;35029;50.804;12.866;2022-09-24T13:35:46;3.00;;;2.65;;
49193;SDS011;35029;50.804;12.866;2022-09-24T13:38:20;3.95;;;3.20;;
49193;SDS011;35029;50.804;12.866;2022-09-24T13:40:55;3.30;;;2.80;;
49193;SDS011;35029;50.804;12.866;2022-09-24T13:43:34;5.88;;;4.45;;
49193;SDS011;35029;50.804;12.866;2022-09-24T13:46:07;4.97;;;3.40;;
49193;SDS011;35029;50.804;12.866;2022-09-24T13:49:02;4.15;;;3.53;;
49193;SDS011;35029;50.804;12.866;2022-09-24T13:51:32;5.07;;;3.30;;
49193;SDS011;35029;50.804;12.866;2022-09-24T13:54:16;4.90;;;3.40;;
49193;SDS011;35029;50.804;12.866;2022-09-24T13:56:56;6.93;;;3.85;;
49193;SDS011;35029;50.804;12.866;2022-09-24T13:59:23;5.97;;;3.10;;
49193;SDS011;35029;50.804;12.866;2022-09-24T14:01:49;5.47;;;3.60;;
49193;SDS011;35029;50.804;12.866;2022-09-24T14:04:21;4.65;;;3.30;;
49193;SDS011;35029;50.804;12.866;2022-09-24T14:06:48;4.32;;;3.58;;
49193;SDS011;35029;50.804;12.866;2022-09-24T14:09:33;5.45;;;4.53;;
49193;SDS011;35029;50.804;12.866;2022-09-24T14:12:01;4.13;;;3.40;;
49193;SDS011;35029;50.804;12.866;2022-09-24T14:14:42;3.50;;;3.20;;
49193;SDS011;35029;50.804;12.866;2022-09-24T14:17:12;5.63;;;3.67;;
49193;SDS011;35029;50.804;12.866;2022-09-24T14:19:39;3.78;;;3.47;;
49193;SDS011;35029;50.804;12.866;2022-09-24T14:22:08;4.20;;;3.40;;
49193;SDS011;35029;50.804;12.866;2022-09-24T14:27:13;4.10;;;3.22;;
49193;SDS011;35029;50.804;12.866;2022-09-24T14:29:43;6.03;;;3.00;;
49193;SDS011;35029;50.804;12.866;2022-09-24T14:34:57;6.82;;;4.63;;
49193;SDS011;35029;50.804;12.866;2022-09-24T14:40:14;4.00;;;3.47;;
49193;SDS011;35029;50.804;12.866;2022-09-24T14:42:45;4.43;;;3.30;;
49193;SDS011;35029;50.804;12.866;2022-09-24T14:45:26;3.42;;;2.70;;
49193;SDS011;35029;50.804;12.866;2022-09-24T14:47:59;3.83;;;3.13;;
49193;SDS011;35029;50.804;12.866;2022-09-24T14:52:54;3.17;;;2.88;;
49193;SDS011;35029;50.804;12.866;2022-09-24T14:55:21;3.60;;;3.28;;
49193;SDS011;35029;50.804;12.866;2022-09-24T14:58:00;3.85;;;3.25;;
49193;SDS011;35029;50.804;12.866;2022-09-24T15:00:26;3.72;;;2.88;;
49193;SDS011;35029;50.804;12.866;2022-09-24T15:03:04;3.70;;;2.80;;
49193;SDS011;35029;50.804;12.866;2022-09-24T15:05:35;3.47;;;2.70;;
49193;SDS011;35029;50.804;12.866;2022-09-24T15:10:52;2.72;;;2.10;;
49193;SDS011;35029;50.804;12.866;2022-09-24T15:13:20;2.85;;;2.50;;
49193;SDS011;35029;50.804;12.866;2022-09-24T15:15:48;5.50;;;2.20;;
49193;SDS011;35029;50.804;12.866;2022-09-24T15:18:25;2.53;;;2.30;;
49193;SDS011;35029;50.804;12.866;2022-09-24T15:20:51;3.95;;;2.80;;
49193;SDS011;35029;50.804;12.866;2022-09-24T15:23:16;2.42;;;2.22;;
49193;SDS011;35029;50.804;12.866;2022-09-24T15:25:43;4.88;;;2.40;;
49193;SDS011;35029;50.804;12.866;2022-09-24T15:28:12;2.40;;;2.15;;
49193;SDS011;35029;50.804;12.866;2022-09-24T15:30:38;6.90;;;2.70;;
49193;SDS011;35029;50.804;12.866;2022-09-24T15:33:13;2.72;;;2.30;;
49193;SDS011;35029;50.804;12.866;2022-09-24T15:35:39;4.72;;;2.28;;
49193;SDS011;35029;50.804;12.866;2022-09-24T15:38:07;3.22;;;2.40;;
49193;SDS011;35029;50.804;12.866;2022-09-24T15:40:42;3.60;;;2.75;;
49193;SDS011;35029;50.804;12.866;2022-09-24T15:43:16;4.75;;;2.80;;
49193;SDS011;35029;50.804;12.866;2022-09-24T15:45:44;4.85;;;2.10;;
49193;SDS011;35029;50.804;12.866;2022-09-24T15:48:09;3.35;;;2.67;;
49193;SDS011;35029;50.804;12.866;2022-09-24T15:50:36;3.47;;;2.35;;
49193;SDS011;35029;50.804;12.866;2022-09-24T15:53:03;3.40;;;2.63;;
49193;SDS011;35029;50.804;12.866;2022-09-24T15:55:30;2.97;;;2.67;;
49193;SDS011;35029;50.804;12.866;2022-09-24T15:57:57;3.53;;;2.55;;
49193;SDS011;35029;50.804;12.866;2022-09-24T16:00:24;6.50;;;3.03;;
49193;SDS011;35029;50.804;12.866;2022-09-24T16:02:51;5.47;;;2.58;;
49193;SDS011;35029;50.804;12.866;2022-09-24T16:05:19;4.65;;;2.63;;
49193;SDS011;35029;50.804;12.866;2022-09-24T16:07:45;6.60;;;3.40;;
49193;SDS011;35029;50.804;12.866;2022-09-24T16:10:11;5.80;;;3.63;;
49193;SDS011;35029;50.804;12.866;2022-09-24T16:12:38;5.05;;;3.30;;
49193;SDS011;35029;50.804;12.866;2022-09-24T16:15:04;6.13;;;3.30;;
49193;SDS011;35029;50.804;12.866;2022-09-24T16:17:30;5.63;;;3.35;;
49193;SDS011;35029;50.804;12.866;2022-09-24T16:19:57;3.75;;;3.05;;
49193;SDS011;35029;50.804;12.866;2022-09-24T16:22:22;4.90;;;3.30;;
49193;SDS011;35029;50.804;12.866;2022-09-24T16:24:48;5.80;;;3.65;;
49193;SDS011;35029;50.804;12.866;2022-09-24T16:27:14;8.68;;;3.10;;
49193;SDS011;35029;50.804;12.866;2022-09-24T16:29:40;10.55;;;4.45;;
49193;SDS011;35029;50.804;12.866;2022-09-24T16:32:05;12.50;;;5.70;;
49193;SDS011;35029;50.804;12.866;2022-09-24T16:34:31;7.60;;;5.50;;
49193;SDS011;35029;50.804;12.866;2022-09-24T16:36:57;16.13;;;5.68;;
49193;SDS011;35029;50.804;12.866;2022-09-24T16:39:22;8.93;;;4.38;;
49193;SDS011;35029;50.804;12.866;2022-09-24T16:41:48;5.57;;;4.13;;